Página principal
METAR-TAF:

METAR-TAF

Aeroportos :

Vigo, Espanha

Aeroporto de Vigo

latitude: 42-13N, longitude: 008-38W, altura: 264 m

Observação actual do tempo

O boletim foi feito há 4 horas e 17 minutos, às 00:30 UTC
Vento 3 kt de sul, variando entre sudeste e oeste
Temperatura 6°C
Humidade 70%
Pressão 1011 hPa
Visibilidade 10 km ou mais
sem nuvens abaixo de 1500 metros e sem cumulonimbus

METAR: LEVX 220030Z 19003KT 140V270 CAVOK 06/01 Q1011 NOSIG

Hora: 05:47 (04:47 UTC)

Previsão

O boletim foi feito há 5 horas e 47 minutos, às 23:00 UTC
Previsão válida de 22 às 00 UTC a 22 às 24 UTC
Vento 6 kt de es-nordeste
Visibilidade 10 km ou mais
sem nuvens abaixo de 1500 metros e sem cumulonimbus
Probabilidade 40% :
Temporariamente
de 22 às 14 UTC a 22 às 18 UTC
Vento 10 kt de oeste

TAF: LEVX 212300Z 2200/2224 07006KT CAVOK TX13/2214Z TN02/2207Z PROB40 TEMPO 2214/2218 28010KT

Observações e previsões do tempo de mais de 4000 aeroportos (mensagens METAR e TAF).

As estações disponíveis são os pontos amarelos e vermelhos sobre o mapa.

Mova o rato sobre o mapa para ver o nome da estação.

Depois clique no ponto para visualizar as observações e previsões meteorológicas.

Para alterar o mapa : clique nos botões verdes com uma cruz preta para aumentar o zoom; no botão verde com uma pitada de zoom; ou nas setas verdes para mapas adjacentes.


METAR-TAF: